Time;durP1;ratioP1;P1;durP2;ratioP2;P2;SDS_P1;SDS_P2;PMS_P1;PMS_P2;Temp;Humidity;BMP_temperature;BMP_pressure;BME280_temperature;BME280_humidity;BME280_pressure;Samples;Min_cycle;Max_cycle;Signal;HPM_P1;HPM_P2
2023/06/08 00:01:57;;;;;;;3.17;2.17;;;;;;;13.65;100.00;98561.97;5089483;28;20401;-72
2023/06/08 00:04:22;;;;;;;3.75;2.35;;;;;;;13.72;100.00;98578.16;5090880;28;20017;-72
2023/06/08 00:06:49;;;;;;;4.25;2.47;;;;;;;13.71;100.00;98577.34;5087763;28;20028;-73
2023/06/08 00:09:15;;;;;;;4.22;2.60;;;;;;;13.51;100.00;98561.28;5082086;28;20431;-72
2023/06/08 00:11:41;;;;;;;3.38;2.70;;;;;;;13.45;100.00;98570.34;5091904;28;20489;-73
2023/06/08 00:14:06;;;;;;;3.63;2.55;;;;;;;13.51;100.00;98574.88;5094758;28;20037;-72
2023/06/08 00:16:33;;;;;;;3.55;2.60;;;;;;;13.54;100.00;98579.03;5083442;28;20052;-73
2023/06/08 00:19:00;;;;;;;4.45;2.78;;;;;;;13.51;100.00;98558.56;5083215;28;20028;-72
2023/06/08 00:21:26;;;;;;;3.03;2.47;;;;;;;13.61;100.00;98574.34;5078933;28;20035;-73
2023/06/08 00:23:52;;;;;;;6.45;2.67;;;;;;;13.50;100.00;98567.78;5070113;28;20059;-72
2023/06/08 00:26:17;;;;;;;8.82;2.75;;;;;;;13.52;100.00;98575.72;5091932;28;20055;-72
2023/06/08 00:28:46;;;;;;;3.67;2.63;;;;;;;13.29;100.00;98571.78;5085326;28;20174;-73
2023/06/08 00:31:11;;;;;;;3.22;2.47;;;;;;;13.29;100.00;98573.69;5072439;28;20031;-73
2023/06/08 00:33:37;;;;;;;3.83;2.67;;;;;;;13.19;100.00;98566.03;5084064;28;20028;-73
2023/06/08 00:36:04;;;;;;;3.85;2.75;;;;;;;13.13;100.00;98581.34;5084949;28;20024;-72
2023/06/08 00:38:29;;;;;;;3.97;2.90;;;;;;;13.16;100.00;98585.50;5077659;28;20035;-72
2023/06/08 00:40:55;;;;;;;8.50;2.83;;;;;;;13.07;100.00;98582.25;5074800;28;20020;-73
2023/06/08 00:43:20;;;;;;;3.90;3.00;;;;;;;13.07;100.00;98576.81;5070856;28;20028;-72
2023/06/08 00:45:45;;;;;;;6.80;3.20;;;;;;;13.04;100.00;98579.97;5079015;28;20048;-72
2023/06/08 00:48:11;;;;;;;3.97;2.85;;;;;;;13.07;100.00;98594.97;5074521;28;20024;-73
2023/06/08 00:50:36;;;;;;;6.82;3.20;;;;;;;12.92;100.00;98582.59;5082060;28;20396;-73
2023/06/08 00:53:02;;;;;;;5.47;3.35;;;;;;;13.04;100.00;98590.81;5077408;28;20028;-73
2023/06/08 00:55:29;;;;;;;4.55;3.10;;;;;;;12.94;100.00;98585.94;5060980;28;20021;-73
2023/06/08 00:57:54;;;;;;;4.97;2.85;;;;;;;12.89;100.00;98579.47;5076070;28;20398;-73
2023/06/08 01:00:21;;;;;;;5.00;3.60;;;;;;;12.75;100.00;98564.38;5090001;28;20024;-73
2023/06/08 01:02:49;;;;;;;4.28;2.90;;;;;;;12.74;100.00;98579.03;5072580;28;20035;-72
2023/06/08 01:05:16;;;;;;;5.28;3.05;;;;;;;12.59;100.00;98561.19;5078225;28;20039;-72
2023/06/08 01:08:04;;;;;;;5.82;3.83;;;;;;;12.56;100.00;98568.94;5087973;28;20032;-72
2023/06/08 01:10:45;;;;;;;7.40;4.30;;;;;;;12.50;100.00;98578.81;5075625;28;20020;-72
2023/06/08 01:13:22;;;;;;;7.60;4.07;;;;;;;12.45;100.00;98582.19;5098893;28;20034;-72
2023/06/08 01:15:51;;;;;;;5.05;3.97;;;;;;;12.39;100.00;98582.22;5090457;28;20091;-72
2023/06/08 01:18:22;;;;;;;11.45;3.65;;;;;;;12.36;100.00;98578.06;5062272;28;20028;-72
2023/06/08 01:21:07;;;;;;;5.10;3.60;;;;;;;12.40;100.00;98568.44;5088286;28;20028;-73
2023/06/08 01:24:12;;;;;;;5.60;3.70;;;;;;;12.45;100.00;98575.94;5089165;28;20024;-73
2023/06/08 01:26:43;;;;;;;6.57;3.67;;;;;;;12.45;100.00;98565.91;5077361;28;20025;-73
2023/06/08 01:29:10;;;;;;;3.85;3.03;;;;;;;12.47;100.00;98568.38;5079122;28;20516;-73
2023/06/08 01:31:36;;;;;;;4.65;3.33;;;;;;;12.39;100.00;98566.78;5065860;28;20043;-72
2023/06/08 01:34:02;;;;;;;4.05;3.38;;;;;;;12.37;100.00;98578.91;5080530;28;20027;-72
2023/06/08 01:36:49;;;;;;;5.97;3.10;;;;;;;12.28;100.00;98581.06;5093573;28;20040;-72
2023/06/08 01:39:36;;;;;;;6.22;3.42;;;;;;;12.31;100.00;98580.59;5087979;28;20028;-73
2023/06/08 01:42:03;;;;;;;5.10;3.28;;;;;;;12.27;100.00;98579.41;5076056;28;20027;-72
2023/06/08 01:44:31;;;;;;;5.30;3.63;;;;;;;12.18;100.00;98576.13;5070495;28;20036;-73
2023/06/08 01:46:59;;;;;;;3.92;3.35;;;;;;;12.11;100.00;98569.09;5075596;28;20436;-72
2023/06/08 01:49:27;;;;;;;6.28;3.65;;;;;;;12.06;100.00;98567.03;5086856;28;20461;-72
2023/06/08 01:51:53;;;;;;;6.35;4.00;;;;;;;12.13;100.00;98578.66;5083928;28;20059;-73
2023/06/08 01:54:21;;;;;;;8.57;3.53;;;;;;;12.13;100.00;98578.66;5083926;28;20083;-72
2023/06/08 01:56:47;;;;;;;8.00;3.85;;;;;;;11.94;100.00;98574.19;5067751;28;20032;-72
2023/06/08 01:59:12;;;;;;;5.53;4.00;;;;;;;11.72;100.00;98555.53;5086923;28;21760;-73
2023/06/08 02:01:37;;;;;;;7.53;3.72;;;;;;;11.77;100.00;98552.16;5081910;28;20109;-72
2023/06/08 02:04:03;;;;;;;7.07;4.30;;;;;;;11.82;100.00;98568.59;5073545;28;20099;-73
2023/06/08 02:06:28;;;;;;;4.80;3.80;;;;;;;11.64;100.00;98569.31;5071604;28;20456;-72
2023/06/08 02:08:54;;;;;;;5.68;4.28;;;;;;;11.72;100.00;98584.50;5074406;28;20024;-73
2023/06/08 02:11:19;;;;;;;5.25;4.25;;;;;;;11.66;100.00;98558.25;5080005;28;20024;-72
2023/06/08 02:13:45;;;;;;;5.13;3.85;;;;;;;11.82;100.00;98574.84;5081835;28;20054;-73
2023/06/08 02:16:11;;;;;;;6.03;4.00;;;;;;;11.79;100.00;98571.75;5071105;28;20435;-72
2023/06/08 02:18:40;;;;;;;5.80;3.90;;;;;;;11.69;100.00;98560.56;5079530;28;20023;-73
2023/06/08 02:21:08;;;;;;;4.78;3.67;;;;;;;11.65;100.00;98564.72;5080358;28;20024;-72
2023/06/08 02:23:34;;;;;;;6.63;3.90;;;;;;;11.54;100.00;98560.81;5074140;28;20024;-73
2023/06/08 02:26:00;;;;;;;5.47;3.40;;;;;;;11.43;100.00;98562.34;5088233;28;20349;-73
2023/06/08 02:28:25;;;;;;;5.95;4.03;;;;;;;11.49;100.00;98577.72;5076315;28;20033;-73
2023/06/08 02:30:50;;;;;;;6.00;4.10;;;;;;;11.44;100.00;98572.09;5071649;28;20447;-73
2023/06/08 02:33:16;;;;;;;6.32;4.45;;;;;;;11.38;100.00;98565.69;5083028;28;20036;-73
2023/06/08 02:35:41;;;;;;;6.60;4.28;;;;;;;11.51;100.00;98575.63;5086236;28;20056;-72
2023/06/08 02:38:06;;;;;;;5.13;4.10;;;;;;;11.43;100.00;98561.50;5085659;28;20026;-72
2023/06/08 02:40:32;;;;;;;6.57;3.88;;;;;;;11.43;100.00;98559.63;5091718;28;20392;-73
2023/06/08 02:42:58;;;;;;;7.00;4.32;;;;;;;11.52;100.00;98571.03;5081900;28;20020;-73
2023/06/08 02:45:23;;;;;;;7.43;4.25;;;;;;;11.52;100.00;98565.63;5093343;28;20028;-73
2023/06/08 02:47:49;;;;;;;7.13;4.53;;;;;;;11.45;100.00;98560.25;5072553;28;20040;-72
2023/06/08 02:50:14;;;;;;;6.25;3.97;;;;;;;11.50;100.00;98563.13;5075652;28;20031;-74
2023/06/08 02:52:39;;;;;;;5.28;4.03;;;;;;;11.43;100.00;98573.16;5087397;28;20020;-74
2023/06/08 02:55:05;;;;;;;7.72;4.80;;;;;;;11.42;100.00;98576.91;5082376;28;20043;-74
2023/06/08 02:57:32;;;;;;;5.60;4.65;;;;;;;11.46;100.00;98582.75;5072854;28;20529;-74
2023/06/08 02:59:58;;;;;;;7.43;4.40;;;;;;;11.41;100.00;98576.06;5089838;28;20039;-74
2023/06/08 03:02:23;;;;;;;8.45;4.53;;;;;;;11.33;100.00;98570.91;5083078;28;20057;-74
2023/06/08 03:04:52;;;;;;;7.25;4.75;;;;;;;11.29;100.00;98571.53;5092370;28;20062;-74
2023/06/08 03:07:17;;;;;;;8.57;4.53;;;;;;;11.23;100.00;98581.34;5075208;28;20130;-74
2023/06/08 03:09:42;;;;;;;11.88;4.57;;;;;;;11.19;100.00;98570.13;5076254;28;20130;-74
2023/06/08 03:12:10;;;;;;;21.48;5.15;;;;;;;11.35;100.00;98581.53;5072825;28;20040;-74
2023/06/08 03:14:36;;;;;;;7.40;4.70;;;;;;;11.29;100.00;98574.25;5095351;28;20373;-74
2023/06/08 03:17:03;;;;;;;9.23;4.82;;;;;;;11.27;100.00;98576.34;5072425;28;20024;-74
2023/06/08 03:19:31;;;;;;;6.13;3.97;;;;;;;11.25;100.00;98579.28;5077275;28;20410;-74
2023/06/08 03:22:02;;;;;;;4.68;3.72;;;;;;;11.29;100.00;98576.94;5093331;28;20048;-74
2023/06/08 03:24:28;;;;;;;7.18;4.93;;;;;;;11.13;100.00;98562.88;5077403;28;20508;-74
2023/06/08 03:27:00;;;;;;;6.45;4.40;;;;;;;11.13;100.00;98564.72;5074019;28;20086;-74
2023/06/08 03:29:26;;;;;;;5.95;4.55;;;;;;;11.14;100.00;98577.22;5082624;28;20034;-74
2023/06/08 03:31:52;;;;;;;6.28;4.65;;;;;;;11.26;100.00;98582.81;5092260;28;20031;-74
2023/06/08 03:34:17;;;;;;;7.38;4.63;;;;;;;11.22;100.00;98570.75;5093676;28;20102;-74
2023/06/08 03:36:43;;;;;;;8.50;4.95;;;;;;;11.02;100.00;98581.63;5083542;28;20028;-74
2023/06/08 03:39:11;;;;;;;9.43;5.30;;;;;;;10.92;100.00;98582.88;5075028;28;20138;-74
2023/06/08 03:41:36;;;;;;;9.75;4.72;;;;;;;10.91;100.00;98583.94;5090061;28;20028;-74
2023/06/08 03:44:01;;;;;;;6.00;4.30;;;;;;;11.00;100.00;98578.28;5084689;28;20165;-74
2023/06/08 03:46:27;;;;;;;7.30;4.65;;;;;;;11.11;100.00;98594.72;5073664;28;20036;-74
2023/06/08 03:48:52;;;;;;;5.10;3.83;;;;;;;11.09;100.00;98587.84;5092710;28;20024;-74
2023/06/08 03:51:20;;;;;;;4.82;3.75;;;;;;;11.14;100.00;98590.75;5094574;28;20504;-74
2023/06/08 03:53:46;;;;;;;7.10;4.30;;;;;;;11.16;100.00;98592.22;5096241;28;20029;-74
2023/06/08 03:56:11;;;;;;;6.45;4.57;;;;;;;11.13;100.00;98589.09;5094428;28;20020;-74
2023/06/08 03:58:36;;;;;;;5.60;4.50;;;;;;;11.25;100.00;98602.81;5094746;28;20020;-74
2023/06/08 04:01:02;;;;;;;6.32;4.65;;;;;;;11.30;100.00;98601.13;5097171;28;20050;-74
2023/06/08 04:03:27;;;;;;;7.50;4.72;;;;;;;11.41;100.00;98605.06;5079324;28;20416;-74
2023/06/08 04:05:53;;;;;;;6.57;4.93;;;;;;;11.45;100.00;98581.91;5078986;28;20024;-74
2023/06/08 04:08:18;;;;;;;8.43;4.60;;;;;;;11.68;100.00;98585.97;5087555;28;20481;-74
2023/06/08 04:10:44;;;;;;;5.80;4.90;;;;;;;11.76;100.00;98580.28;5060225;28;20039;-74
2023/06/08 04:13:09;;;;;;;5.95;4.60;;;;;;;11.89;100.00;98584.84;5080682;28;20035;-74
2023/06/08 04:15:35;;;;;;;6.30;4.43;;;;;;;11.91;100.00;98575.44;5083372;28;20015;-75
2023/06/08 04:18:02;;;;;;;7.28;4.25;;;;;;;12.04;100.00;98585.38;5073938;28;20496;-71
2023/06/08 04:20:27;;;;;;;6.90;4.47;;;;;;;12.00;100.00;98576.88;5080944;28;20023;-74
2023/06/08 04:22:53;;;;;;;10.30;4.60;;;;;;;12.08;100.00;98586.63;5080298;28;20476;-74
2023/06/08 04:25:19;;;;;;;6.50;4.97;;;;;;;12.06;100.00;98573.28;5084436;28;20031;-75
2023/06/08 04:27:46;;;;;;;6.60;4.30;;;;;;;12.13;100.00;98566.97;5089928;28;20020;-76
2023/06/08 04:30:12;;;;;;;6.82;4.85;;;;;;;12.27;100.00;98584.81;5085045;28;20025;-76
2023/06/08 04:32:37;;;;;;;6.22;4.63;;;;;;;12.35;100.00;98571.00;5082600;28;20031;-76
2023/06/08 04:35:03;;;;;;;9.40;5.43;;;;;;;12.45;100.00;98584.91;5074697;28;20027;-75
2023/06/08 04:37:29;;;;;;;11.35;5.70;;;;;;;12.48;100.00;98581.72;5071993;28;20028;-76
2023/06/08 04:39:56;;;;;;;9.75;5.07;;;;;;;12.52;100.00;98578.56;5070403;28;20024;-76
2023/06/08 04:42:23;;;;;;;9.30;5.78;;;;;;;12.68;100.00;98586.16;5073830;28;20050;-76
2023/06/08 04:44:50;;;;;;;7.70;5.50;;;;;;;12.90;100.00;98576.56;5088909;28;21689;-75
2023/06/08 04:47:17;;;;;;;8.45;5.45;;;;;;;13.07;100.00;98574.09;5091708;28;20424;-75
2023/06/08 04:49:42;;;;;;;9.25;5.10;;;;;;;13.28;100.00;98572.88;5090355;28;20450;-76
2023/06/08 04:52:09;;;;;;;8.50;5.25;;;;;;;13.45;100.00;98559.47;5064574;28;20035;-75
2023/06/08 04:54:36;;;;;;;6.20;4.60;;;;;;;13.85;100.00;98579.88;5086262;28;20019;-76
2023/06/08 04:57:03;;;;;;;10.00;3.85;;;;;;;13.95;100.00;98582.88;5091831;28;20027;-75
2023/06/08 04:59:28;;;;;;;5.03;3.42;;;;;;;13.82;100.00;98571.13;5091610;28;20056;-76
2023/06/08 05:01:54;;;;;;;4.55;3.67;;;;;;;13.79;100.00;98587.06;5081781;28;20032;-75
2023/06/08 05:04:20;;;;;;;6.05;4.03;;;;;;;13.91;100.00;98574.38;5091131;28;20114;-76
2023/06/08 05:06:45;;;;;;;6.13;3.90;;;;;;;14.06;100.00;98570.38;5089622;28;20047;-76
2023/06/08 05:09:12;;;;;;;5.90;3.70;;;;;;;14.36;100.00;98567.63;5082657;28;20027;-76
2023/06/08 05:11:37;;;;;;;5.38;4.20;;;;;;;14.71;100.00;98588.66;5084072;28;20471;-75
2023/06/08 05:14:03;;;;;;;7.25;3.97;;;;;;;14.88;100.00;98574.13;5091189;28;20055;-76
2023/06/08 05:16:28;;;;;;;6.10;3.92;;;;;;;15.00;100.00;98565.94;5083385;28;20036;-76
2023/06/08 05:18:53;;;;;;;6.95;3.70;;;;;;;15.43;100.00;98582.94;5058790;28;20029;-76
2023/06/08 05:21:19;;;;;;;5.85;4.20;;;;;;;15.58;100.00;98580.53;5076845;28;20031;-75
2023/06/08 05:23:44;;;;;;;6.30;4.00;;;;;;;15.72;100.00;98576.50;5081112;28;20103;-75
2023/06/08 05:26:09;;;;;;;7.10;4.00;;;;;;;16.08;100.00;98590.00;5090077;28;20036;-72
2023/06/08 05:28:35;;;;;;;6.05;3.53;;;;;;;16.49;100.00;98582.53;5084913;28;20027;-72
2023/06/08 05:31:00;;;;;;;6.53;4.22;;;;;;;16.74;100.00;98580.22;5078467;28;20032;-75
2023/06/08 05:33:26;;;;;;;6.05;4.60;;;;;;;16.74;100.00;98555.66;5082853;28;20031;-76
2023/06/08 05:35:51;;;;;;;7.28;4.25;;;;;;;16.69;100.00;98582.88;5088177;28;20089;-76
2023/06/08 05:38:17;;;;;;;6.85;4.07;;;;;;;16.66;100.00;98575.16;5074124;28;20035;-75
2023/06/08 05:40:42;;;;;;;6.45;4.60;;;;;;;16.30;100.00;98573.75;5067613;28;20025;-76
2023/06/08 05:43:08;;;;;;;7.47;4.15;;;;;;;15.98;100.00;98586.00;5083717;28;20032;-76
2023/06/08 05:45:33;;;;;;;6.78;4.70;;;;;;;15.99;100.00;98589.56;5065930;28;20040;-79
2023/06/08 05:47:58;;;;;;;6.03;4.47;;;;;;;16.09;100.00;98603.41;5075375;28;20075;-79
2023/06/08 05:50:24;;;;;;;6.47;4.65;;;;;;;16.21;100.00;98582.31;5074669;28;20025;-79
2023/06/08 05:52:49;;;;;;;7.20;5.13;;;;;;;16.52;100.00;98591.06;5073443;28;20409;-77
2023/06/08 05:55:14;;;;;;;8.18;4.35;;;;;;;16.71;100.00;98577.97;5091586;28;20020;-77
2023/06/08 05:57:40;;;;;;;6.72;4.65;;;;;;;17.02;100.00;98579.31;5096964;28;20030;-78
2023/06/08 06:00:09;;;;;;;9.02;4.85;;;;;;;17.07;100.00;98573.91;5097954;28;20081;-78
2023/06/08 06:02:35;;;;;;;7.38;3.97;;;;;;;17.49;100.00;98575.31;5089999;28;20078;-79
2023/06/08 06:05:00;;;;;;;5.72;4.72;;;;;;;17.87;100.00;98579.91;5066263;28;20021;-78
2023/06/08 06:07:25;;;;;;;5.80;4.70;;;;;;;17.94;100.00;98538.63;5072628;28;20130;-78
2023/06/08 06:09:51;;;;;;;7.68;4.38;;;;;;;18.30;100.00;98552.69;5071178;28;20111;-78
2023/06/08 06:12:16;;;;;;;6.63;4.65;;;;;;;18.45;100.00;98544.63;5076516;28;20084;-77
2023/06/08 06:14:41;;;;;;;7.47;5.07;;;;;;;18.81;100.00;98564.09;5074070;28;20421;-77
2023/06/08 06:17:08;;;;;;;7.40;5.03;;;;;;;19.30;100.00;98558.38;5069157;28;20095;-77
2023/06/08 06:19:36;;;;;;;6.88;5.10;;;;;;;19.79;100.00;98560.81;5082263;28;20059;-76
2023/06/08 06:22:06;;;;;;;7.47;4.45;;;;;;;19.89;100.00;98558.13;5083897;28;20084;-80
2023/06/08 06:24:31;;;;;;;6.35;4.68;;;;;;;20.12;100.00;98556.81;5084667;28;20033;-80
2023/06/08 06:26:58;;;;;;;6.15;4.40;;;;;;;20.05;100.00;98556.22;5074186;28;20393;-79
2023/06/08 06:29:24;;;;;;;5.18;4.40;;;;;;;20.27;100.00;98531.25;5093383;28;20478;-77
2023/06/08 06:31:49;;;;;;;7.60;3.88;;;;;;;20.90;100.00;98550.25;5079349;28;20062;-76
2023/06/08 06:34:15;;;;;;;5.65;4.45;;;;;;;21.17;100.00;98543.63;5080865;28;20470;-76
2023/06/08 06:36:40;;;;;;;10.52;4.53;;;;;;;21.16;100.00;98544.69;5062593;28;20028;-76
2023/06/08 06:39:06;;;;;;;6.68;4.95;;;;;;;21.17;100.00;98549.13;5079125;28;20025;-77
2023/06/08 06:41:31;;;;;;;6.57;4.20;;;;;;;21.68;100.00;98543.44;5076207;28;20032;-76
2023/06/08 06:43:56;;;;;;;7.43;4.78;;;;;;;22.23;100.00;98537.94;5069914;28;20024;-79
2023/06/08 06:46:22;;;;;;;8.38;4.43;;;;;;;22.89;100.00;98545.66;5071760;28;20024;-77
2023/06/08 06:48:47;;;;;;;10.27;4.85;;;;;;;23.81;100.00;98543.84;5090218;28;20028;-76
2023/06/08 06:51:13;;;;;;;7.30;5.05;;;;;;;25.65;100.00;98535.25;5088833;28;20077;-76
2023/06/08 06:53:38;;;;;;;11.95;4.43;;;;;;;27.54;91.45;98530.66;5083792;28;20024;-76
2023/06/08 06:56:03;;;;;;;7.22;4.50;;;;;;;29.47;74.06;98535.00;5077930;28;20035;-77
2023/06/08 06:58:31;;;;;;;5.68;4.43;;;;;;;31.27;62.19;98542.66;5062038;28;20039;-77
2023/06/08 07:00:57;;;;;;;7.63;4.80;;;;;;;31.41;59.00;98538.41;5080699;28;20024;-77
2023/06/08 07:03:26;;;;;;;5.75;4.70;;;;;;;31.94;54.57;98540.50;5091576;28;20025;-77
2023/06/08 07:05:52;;;;;;;10.02;4.80;;;;;;;32.56;53.77;98527.19;5077729;28;20535;-77
2023/06/08 07:08:18;;;;;;;7.10;4.43;;;;;;;31.67;54.17;98523.25;5083114;28;20368;-77
2023/06/08 07:10:43;;;;;;;6.75;4.53;;;;;;;32.91;52.34;98530.19;5082469;28;20030;-77
2023/06/08 07:13:08;;;;;;;6.38;3.70;;;;;;;34.24;49.74;98534.31;5072110;28;20422;-77
2023/06/08 07:15:33;;;;;;;6.60;3.90;;;;;;;34.80;47.77;98527.50;5087429;28;20017;-78
2023/06/08 07:17:59;;;;;;;7.28;4.28;;;;;;;34.37;46.56;98533.00;5074940;28;20025;-77
2023/06/08 07:20:24;;;;;;;5.53;3.63;;;;;;;34.04;46.93;98520.25;5075297;28;20024;-78
2023/06/08 07:22:49;;;;;;;5.30;4.03;;;;;;;35.33;44.74;98531.31;5077896;28;20521;-77
2023/06/08 07:25:15;;;;;;;5.53;3.45;;;;;;;34.91;44.60;98545.38;5084619;28;20485;-73
2023/06/08 07:27:40;;;;;;;5.38;4.00;;;;;;;35.67;43.59;98544.78;5078497;28;20027;-74
2023/06/08 07:30:06;;;;;;;5.85;3.70;;;;;;;36.02;41.81;98546.50;5064702;28;20017;-74
2023/06/08 07:32:33;;;;;;;5.50;3.70;;;;;;;35.90;42.50;98539.91;5093194;28;20082;-73
2023/06/08 07:34:59;;;;;;;6.70;3.60;;;;;;;38.24;39.20;98543.25;5085518;28;20032;-73
2023/06/08 07:37:24;;;;;;;5.85;3.47;;;;;;;38.85;38.59;98535.06;5088369;28;20436;-74
2023/06/08 07:39:50;;;;;;;4.85;3.35;;;;;;;39.51;36.62;98548.97;5081352;28;20547;-73
2023/06/08 07:42:15;;;;;;;4.18;3.42;;;;;;;39.78;35.81;98538.06;5073507;28;20027;-73
2023/06/08 07:44:41;;;;;;;6.05;3.40;;;;;;;38.89;37.39;98538.75;5094126;28;20085;-74
2023/06/08 07:47:06;;;;;;;7.00;3.90;;;;;;;38.55;37.79;98548.28;5090042;28;20020;-73
2023/06/08 07:49:31;;;;;;;5.35;3.67;;;;;;;39.76;36.45;98543.31;5083912;28;20040;-74
2023/06/08 07:51:56;;;;;;;4.80;3.50;;;;;;;40.03;35.37;98544.50;5070970;28;20024;-74
2023/06/08 07:54:24;;;;;;;4.45;2.92;;;;;;;39.51;35.60;98548.97;5086649;28;20270;-74
2023/06/08 07:56:50;;;;;;;6.57;4.10;;;;;;;37.23;37.53;98541.63;5084446;28;20039;-74
2023/06/08 07:59:15;;;;;;;3.10;2.67;;;;;;;39.56;36.64;98548.56;5074997;28;20035;-74
2023/06/08 08:01:44;;;;;;;3.85;2.75;;;;;;;40.15;34.73;98545.28;5079379;28;20039;-74
2023/06/08 08:04:10;;;;;;;3.92;3.10;;;;;;;40.13;34.41;98542.84;5093458;28;20028;-74
2023/06/08 08:06:36;;;;;;;7.65;3.72;;;;;;;39.19;34.91;98552.53;5092101;28;20035;-73
2023/06/08 08:09:02;;;;;;;5.00;3.20;;;;;;;39.23;34.75;98551.34;5078239;28;20034;-73
2023/06/08 08:11:27;;;;;;;5.15;2.80;;;;;;;40.01;34.10;98548.94;5080527;28;20056;-74
2023/06/08 08:13:54;;;;;;;4.47;2.88;;;;;;;38.22;34.45;98546.47;5058028;28;20426;-74
2023/06/08 08:16:19;;;;;;;3.10;2.80;;;;;;;40.72;32.88;98548.78;5088878;28;20024;-74
2023/06/08 08:18:45;;;;;;;4.22;2.45;;;;;;;41.23;31.61;98545.69;5083375;28;20393;-74
2023/06/08 08:21:10;;;;;;;3.37;2.30;;;;;;;41.59;30.99;98547.06;5085063;28;20039;-74
2023/06/08 08:23:37;;;;;;;3.47;3.00;;;;;;;38.21;32.54;98532.75;5091843;28;20385;-74
2023/06/08 08:26:02;;;;;;;2.90;2.45;;;;;;;40.03;32.46;98535.19;5082286;28;20466;-74
2023/06/08 08:28:28;;;;;;;3.60;2.63;;;;;;;40.52;32.04;98537.09;5072109;28;20111;-74
2023/06/08 08:30:53;;;;;;;2.95;2.60;;;;;;;41.50;32.13;98523.16;5080768;28;20274;-74
2023/06/08 08:33:19;;;;;;;3.57;2.60;;;;;;;42.03;31.07;98531.25;5085009;28;20036;-74
2023/06/08 08:35:44;;;;;;;12.93;3.60;;;;;;;41.40;31.42;98533.41;5082935;28;20279;-74
2023/06/08 08:38:09;;;;;;;2.80;2.50;;;;;;;41.24;32.21;98530.25;5078284;28;20473;-74
2023/06/08 08:40:35;;;;;;;2.70;2.50;;;;;;;42.13;31.39;98531.53;5085095;28;20036;-74
2023/06/08 08:43:12;;;;;;;2.80;2.47;;;;;;;42.98;30.39;98520.38;5075795;28;20027;-74
2023/06/08 08:45:41;;;;;;;3.85;2.80;;;;;;;42.86;30.46;98519.69;5077446;28;20290;-74
2023/06/08 08:48:08;;;;;;;3.33;2.90;;;;;;;43.69;28.96;98533.50;5070625;28;22165;-74
2023/06/08 08:50:36;;;;;;;3.67;2.57;;;;;;;44.23;29.16;98538.25;5088870;28;20384;-73
2023/06/08 08:53:02;;;;;;;3.40;2.75;;;;;;;44.67;28.50;98529.63;5088412;28;20030;-72
2023/06/08 08:55:28;;;;;;;3.53;2.72;;;;;;;43.76;29.19;98535.44;5079551;28;20397;-71
2023/06/08 08:57:59;;;;;;;5.25;2.50;;;;;;;44.01;29.15;98540.69;5078410;28;20028;-73
2023/06/08 09:00:25;;;;;;;2.78;2.53;;;;;;;44.50;28.11;98532.44;5070745;28;20036;-72
2023/06/08 09:02:51;;;;;;;3.53;2.55;;;;;;;44.14;28.53;98535.97;5085409;28;20074;-72
2023/06/08 09:05:17;;;;;;;3.33;2.90;;;;;;;44.35;28.79;98531.88;5081098;28;20173;-71
2023/06/08 09:07:42;;;;;;;3.20;2.90;;;;;;;44.37;29.35;98534.34;5090168;28;20409;-71
2023/06/08 09:10:22;;;;;;;3.53;3.10;;;;;;;44.02;28.92;98532.94;5089092;28;20031;-72
2023/06/08 09:12:52;;;;;;;3.53;3.00;;;;;;;43.72;28.76;98531.84;5089318;28;20276;-74
2023/06/08 09:15:28;;;;;;;3.40;2.90;;;;;;;43.86;30.18;98534.44;5072861;28;20032;-72
2023/06/08 09:17:54;;;;;;;5.03;3.25;;;;;;;43.89;30.22;98527.06;5065608;28;20412;-71
2023/06/08 09:20:31;;;;;;;4.65;3.55;;;;;;;44.89;28.98;98525.09;5085797;28;20034;-71
2023/06/08 09:22:57;;;;;;;3.35;3.05;;;;;;;44.84;28.88;98515.00;5078290;28;20039;-71
2023/06/08 09:25:36;;;;;;;4.93;3.17;;;;;;;44.85;29.28;98512.94;5089610;28;20028;-71
2023/06/08 09:28:25;;;;;;;3.38;3.08;;;;;;;43.72;29.37;98506.19;5089858;28;20032;-71
2023/06/08 09:30:51;;;;;;;5.80;3.15;;;;;;;43.04;30.40;98505.22;5087370;28;20035;-71
2023/06/08 09:33:32;;;;;;;3.70;3.15;;;;;;;43.46;29.94;98494.41;5086083;28;20115;-71
2023/06/08 09:35:58;;;;;;;4.20;3.05;;;;;;;44.72;29.39;98501.38;5072879;28;20244;-74
2023/06/08 09:38:26;;;;;;;4.13;3.10;;;;;;;44.23;28.97;98500.34;5086301;28;20031;-72
2023/06/08 09:41:12;;;;;;;5.47;3.20;;;;;;;43.27;29.82;98493.09;5061529;28;20029;-71
2023/06/08 09:43:37;;;;;;;3.17;2.88;;;;;;;44.15;29.66;98500.53;5082813;28;20074;-74
2023/06/08 09:46:02;;;;;;;5.57;3.40;;;;;;;44.51;29.13;98496.94;5064496;28;20052;-71
2023/06/08 09:48:27;;;;;;;3.20;2.90;;;;;;;44.96;28.90;98496.38;5092645;28;20024;-72
2023/06/08 09:51:02;;;;;;;5.50;3.40;;;;;;;43.86;29.29;98494.53;5088784;28;20537;-71
2023/06/08 09:53:31;;;;;;;5.28;3.22;;;;;;;44.80;28.73;98479.22;5087429;28;20060;-71
2023/06/08 09:55:58;;;;;;;3.90;3.20;;;;;;;42.06;30.58;98480.47;5075950;28;20067;-73
2023/06/08 09:58:27;;;;;;;3.42;3.13;;;;;;;43.40;30.52;98489.63;5074358;28;20025;-71
2023/06/08 10:00:58;;;;;;;3.13;2.80;;;;;;;45.06;29.13;98486.75;5084736;28;20039;-70
2023/06/08 10:03:36;;;;;;;5.65;3.55;;;;;;;43.30;29.88;98482.88;5090670;28;20035;-71
2023/06/08 10:06:05;;;;;;;4.38;3.38;;;;;;;43.85;30.19;98483.56;5090884;28;20098;-71
2023/06/08 10:08:30;;;;;;;3.83;3.20;;;;;;;45.11;28.72;98482.56;5078889;28;20066;-71
2023/06/08 10:10:56;;;;;;;5.00;3.40;;;;;;;44.18;28.74;98476.81;5087863;28;20108;-71
2023/06/08 10:13:22;;;;;;;3.92;3.33;;;;;;;44.51;28.73;98470.47;5081503;28;20132;-71
2023/06/08 10:15:49;;;;;;;3.78;3.28;;;;;;;45.18;28.93;98470.19;5083715;28;20099;-71
2023/06/08 10:18:14;;;;;;;4.95;3.67;;;;;;;44.58;28.45;98459.69;5082479;28;20031;-71
2023/06/08 10:20:40;;;;;;;6.05;3.00;;;;;;;44.45;28.82;98458.78;5083202;28;20473;-71
2023/06/08 10:23:06;;;;;;;3.58;2.90;;;;;;;46.87;27.63;98454.88;5087365;28;20036;-72
2023/06/08 10:25:33;;;;;;;3.38;2.95;;;;;;;45.96;28.30;98452.25;5069876;28;20109;-71
2023/06/08 10:28:06;;;;;;;4.07;3.20;;;;;;;45.87;27.94;98453.69;5086866;28;20073;-71
2023/06/08 10:30:41;;;;;;;3.40;3.10;;;;;;;44.93;28.26;98447.91;5088798;28;20031;-71
2023/06/08 10:33:11;;;;;;;3.20;2.90;;;;;;;40.87;31.54;98444.53;5071945;28;20024;-71
2023/06/08 10:35:38;;;;;;;4.80;3.08;;;;;;;41.70;31.34;98436.16;5070824;28;20103;-71
2023/06/08 10:38:13;;;;;;;6.22;3.47;;;;;;;40.26;32.90;98438.38;5091412;28;20032;-70
2023/06/08 10:40:50;;;;;;;3.35;3.05;;;;;;;40.10;33.06;98433.16;5081416;28;20036;-72
2023/06/08 10:43:16;;;;;;;3.47;3.17;;;;;;;39.67;33.12;98431.25;5084719;28;20031;-71
2023/06/08 10:45:45;;;;;;;4.85;3.00;;;;;;;41.39;31.34;98418.19;5075033;28;20250;-73
2023/06/08 10:48:15;;;;;;;4.40;3.28;;;;;;;42.84;30.07;98421.75;5083331;28;20453;-71
2023/06/08 10:50:44;;;;;;;3.40;3.10;;;;;;;43.36;27.63;98429.06;5090884;28;20035;-74
2023/06/08 10:53:09;;;;;;;3.53;3.20;;;;;;;42.36;29.08;98431.38;5084063;28;20054;-71
2023/06/08 10:55:35;;;;;;;6.77;2.90;;;;;;;43.73;27.98;98431.69;5080083;28;20517;-71
2023/06/08 10:58:06;;;;;;;4.15;3.05;;;;;;;44.34;27.32;98421.91;5074794;28;20362;-71
2023/06/08 11:00:32;;;;;;;3.03;2.75;;;;;;;43.85;27.33;98420.88;5072250;28;20588;-71
2023/06/08 11:03:01;;;;;;;4.00;3.10;;;;;;;42.95;26.38;98421.63;5078057;28;20521;-71
2023/06/08 11:05:34;;;;;;;4.68;2.63;;;;;;;42.38;29.21;98428.91;5083607;28;20031;-71
2023/06/08 11:08:00;;;;;;;3.85;2.75;;;;;;;41.88;28.43;98418.94;5077786;28;20036;-71
2023/06/08 11:10:26;;;;;;;3.40;2.92;;;;;;;42.00;28.86;98414.75;5082485;28;20028;-74
2023/06/08 11:12:52;;;;;;;5.07;2.80;;;;;;;41.37;29.01;98410.09;5080895;28;20048;-73
2023/06/08 11:15:18;;;;;;;3.50;2.75;;;;;;;41.15;28.46;98420.84;5091953;28;20103;-74
2023/06/08 11:17:50;;;;;;;3.83;3.22;;;;;;;39.68;30.49;98426.38;5075306;28;20115;-73
2023/06/08 11:20:15;;;;;;;3.17;2.88;;;;;;;41.16;29.91;98416.78;5088661;28;20089;-73
2023/06/08 11:22:41;;;;;;;3.15;2.85;;;;;;;42.81;28.53;98414.88;5086732;28;20462;-73
2023/06/08 11:25:07;;;;;;;3.03;2.78;;;;;;;44.58;27.33;98402.63;5089107;28;20497;-74
2023/06/08 11:27:33;;;;;;;5.32;2.65;;;;;;;44.91;27.06;98407.59;5086915;28;20029;-73
2023/06/08 11:29:58;;;;;;;3.17;2.67;;;;;;;44.58;26.59;98391.22;5084156;28;20035;-71